Time;durP1;ratioP1;P1;durP2;ratioP2;P2;SDS_P1;SDS_P2;PMS_P1;PMS_P2;Temp;Humidity;BMP_temperature;BMP_pressure;BME280_temperature;BME280_humidity;BME280_pressure;Samples;Min_cycle;Max_cycle;Signal;HPM_P1;HPM_P2
2023/06/03 00:01:47;;;;;;;8.93;3.00;;;15.70;90.60;;;;;;5071303;28;20201;-60
2023/06/03 00:04:17;;;;;;;6.75;3.22;;;15.70;90.70;;;;;;5071098;28;20500;-59
2023/06/03 00:06:43;;;;;;;9.15;3.55;;;15.60;90.70;;;;;;5071006;28;20205;-59
2023/06/03 00:09:10;;;;;;;9.32;3.08;;;15.60;90.60;;;;;;5071273;28;20205;-59
2023/06/03 00:11:37;;;;;;;6.70;3.10;;;15.60;90.80;;;;;;5071280;28;20221;-58
2023/06/03 00:14:04;;;;;;;7.00;2.95;;;15.60;90.90;;;;;;5070735;28;20237;-58
2023/06/03 00:16:32;;;;;;;9.50;3.05;;;15.60;90.90;;;;;;5071032;28;20212;-58
2023/06/03 00:18:59;;;;;;;11.82;3.20;;;15.60;91.00;;;;;;5070982;28;20205;-59
2023/06/03 00:21:27;;;;;;;8.32;3.10;;;15.50;91.20;;;;;;5071280;28;20216;-59
2023/06/03 00:23:54;;;;;;;10.88;3.58;;;15.40;91.30;;;;;;5071119;28;20231;-58
2023/06/03 00:26:21;;;;;;;11.68;3.30;;;15.40;91.60;;;;;;5070890;28;20231;-61
2023/06/03 00:28:49;;;;;;;7.78;3.50;;;15.30;91.80;;;;;;5071039;28;20209;-58
2023/06/03 00:31:16;;;;;;;7.32;2.80;;;15.30;91.90;;;;;;5071114;28;20266;-59
2023/06/03 00:33:43;;;;;;;8.60;3.27;;;15.30;92.10;;;;;;5070788;28;20736;-57
2023/06/03 00:36:09;;;;;;;10.95;3.60;;;15.20;92.00;;;;;;5070946;28;20216;-59
2023/06/03 00:38:37;;;;;;;9.33;2.90;;;15.20;92.40;;;;;;5070912;28;20204;-58
2023/06/03 00:41:04;;;;;;;8.75;2.70;;;15.20;92.60;;;;;;5070774;28;20208;-59
2023/06/03 00:43:31;;;;;;;9.52;3.55;;;15.20;92.70;;;;;;5070950;28;20225;-58
2023/06/03 00:45:58;;;;;;;7.33;2.80;;;15.10;92.80;;;;;;5074308;28;20211;-58
2023/06/03 00:48:25;;;;;;;6.77;3.40;;;15.10;92.90;;;;;;5075316;28;20204;-59
2023/06/03 00:50:51;;;;;;;13.63;3.37;;;15.10;93.00;;;;;;5074585;28;20250;-59
2023/06/03 00:53:18;;;;;;;8.60;2.80;;;15.00;93.30;;;;;;5074925;28;20663;-60
2023/06/03 00:55:46;;;;;;;12.47;3.23;;;14.90;93.50;;;;;;5074580;28;20215;-58
2023/06/03 00:58:13;;;;;;;8.40;3.67;;;14.90;93.60;;;;;;5074632;28;20440;-59
2023/06/03 01:00:40;;;;;;;7.73;3.37;;;14.90;93.80;;;;;;5074675;28;20204;-58
2023/06/03 01:03:14;;;;;;;9.00;3.40;;;14.80;94.10;;;;;;5074645;28;20229;-58
2023/06/03 01:05:41;;;;;;;9.33;2.70;;;14.80;94.10;;;;;;5074651;28;20224;-57
2023/06/03 01:08:24;;;;;;;11.90;3.20;;;14.70;94.20;;;;;;5074440;28;20200;-58
2023/06/03 01:11:02;;;;;;;10.17;3.03;;;14.70;94.40;;;;;;5074329;28;20213;-59
2023/06/03 01:13:37;;;;;;;8.03;3.30;;;14.70;94.50;;;;;;5074807;28;20244;-59
2023/06/03 01:16:05;;;;;;;7.17;3.00;;;14.70;94.70;;;;;;5074155;28;20204;-58
2023/06/03 01:18:32;;;;;;;8.93;3.30;;;14.70;94.90;;;;;;5074206;28;20692;-59
2023/06/03 01:21:03;;;;;;;6.77;2.80;;;14.70;95.00;;;;;;5074307;28;20217;-59
2023/06/03 01:23:33;;;;;;;13.43;3.47;;;14.70;95.20;;;;;;5074150;28;20224;-59
2023/06/03 01:26:00;;;;;;;11.70;3.30;;;14.70;95.20;;;;;;5074066;28;20205;-59
2023/06/03 01:28:29;;;;;;;10.10;3.10;;;14.70;95.40;;;;;;5074067;28;20291;-58
2023/06/03 01:30:56;;;;;;;6.67;3.20;;;14.60;95.50;;;;;;5074094;28;20213;-58
2023/06/03 01:33:26;;;;;;;10.10;3.30;;;14.60;95.60;;;;;;5073951;28;20229;-59
2023/06/03 01:35:55;;;;;;;8.87;3.20;;;14.50;95.80;;;;;;5073629;28;20713;-58
2023/06/03 01:38:23;;;;;;;7.10;2.90;;;14.50;96.10;;;;;;5074374;28;20262;-59
2023/06/03 01:40:53;;;;;;;5.70;2.90;;;14.40;96.20;;;;;;5074082;28;20205;-59
2023/06/03 01:43:20;;;;;;;7.80;3.27;;;14.50;96.20;;;;;;5073861;28;20223;-59
2023/06/03 01:45:47;;;;;;;13.23;3.83;;;14.50;96.20;;;;;;5073507;28;20567;-58
2023/06/03 01:48:13;;;;;;;6.73;3.17;;;14.60;96.40;;;;;;5073828;28;20216;-58
2023/06/03 01:50:41;;;;;;;7.67;2.60;;;14.50;96.40;;;;;;5073525;28;20218;-58
2023/06/03 01:53:08;;;;;;;7.70;3.10;;;14.50;96.50;;;;;;5073697;28;20267;-58
2023/06/03 01:55:35;;;;;;;8.63;3.20;;;14.60;96.50;;;;;;5072504;28;20212;-58
2023/06/03 01:58:04;;;;;;;7.07;3.03;;;14.60;96.30;;;;;;5073537;28;20240;-60
2023/06/03 02:00:30;;;;;;;7.63;3.30;;;14.60;96.30;;;;;;5073504;28;20625;-58
2023/06/03 02:02:57;;;;;;;7.40;3.20;;;14.60;96.30;;;;;;5073353;28;20205;-58
2023/06/03 02:05:24;;;;;;;7.67;3.20;;;14.60;96.30;;;;;;5073376;28;20201;-58
2023/06/03 02:07:50;;;;;;;6.57;2.93;;;14.60;96.40;;;;;;5073263;28;20262;-60
2023/06/03 02:10:17;;;;;;;5.77;3.00;;;14.60;96.50;;;;;;5073361;28;20213;-58
2023/06/03 02:12:44;;;;;;;6.67;3.30;;;14.60;96.50;;;;;;5073186;28;20229;-58
2023/06/03 02:15:12;;;;;;;6.80;3.03;;;14.60;96.50;;;;;;5073211;28;20217;-58
2023/06/03 02:17:40;;;;;;;6.67;2.60;;;14.60;96.40;;;;;;5072854;28;20204;-59
2023/06/03 02:20:09;;;;;;;6.63;2.70;;;14.60;96.40;;;;;;5073458;28;20217;-58
2023/06/03 02:22:36;;;;;;;6.77;3.57;;;14.70;96.70;;;;;;5073502;28;20247;-58
2023/06/03 02:25:02;;;;;;;9.93;3.10;;;14.50;97.20;;;;;;5073208;28;20258;-59
2023/06/03 02:27:29;;;;;;;6.87;3.70;;;14.50;97.60;;;;;;5072616;28;20650;-58
2023/06/03 02:29:56;;;;;;;7.10;3.13;;;14.30;97.80;;;;;;5072849;28;20212;-57
2023/06/03 02:32:24;;;;;;;7.07;3.27;;;14.30;97.90;;;;;;5072819;28;20251;-58
2023/06/03 02:34:51;;;;;;;8.37;3.23;;;14.20;98.10;;;;;;5072781;28;20718;-58
2023/06/03 02:37:18;;;;;;;7.80;3.77;;;14.20;98.50;;;;;;5072748;28;20641;-58
2023/06/03 02:39:45;;;;;;;7.97;3.20;;;14.10;99.00;;;;;;5072703;28;20201;-60
2023/06/03 02:42:12;;;;;;;8.87;3.50;;;14.00;99.30;;;;;;5072706;28;20204;-57
2023/06/03 02:44:39;;;;;;;7.03;3.70;;;14.00;99.60;;;;;;5072404;28;20280;-58
2023/06/03 02:47:07;;;;;;;6.70;3.17;;;13.90;99.80;;;;;;5072397;28;20208;-57
2023/06/03 02:49:36;;;;;;;7.03;3.40;;;13.80;99.90;;;;;;5072793;28;20205;-58
2023/06/03 02:52:03;;;;;;;6.97;3.53;;;13.80;99.90;;;;;;5072489;28;20235;-59
2023/06/03 02:54:30;;;;;;;7.63;3.20;;;13.70;99.90;;;;;;5072619;28;20221;-59
2023/06/03 02:56:56;;;;;;;9.90;3.53;;;13.60;99.90;;;;;;5072090;28;20204;-58
2023/06/03 02:59:23;;;;;;;8.20;3.47;;;13.60;99.90;;;;;;5072268;28;20250;-58
2023/06/03 03:01:50;;;;;;;5.30;2.93;;;13.50;99.90;;;;;;5072656;28;20228;-58
2023/06/03 03:04:17;;;;;;;6.33;3.10;;;13.60;99.90;;;;;;5072129;28;20300;-58
2023/06/03 03:06:49;;;;;;;9.57;3.70;;;13.50;99.90;;;;;;5071850;28;20208;-59
2023/06/03 03:09:16;;;;;;;8.00;3.57;;;13.50;99.90;;;;;;5072208;28;20299;-58
2023/06/03 03:11:42;;;;;;;7.87;3.17;;;13.40;99.90;;;;;;5072126;28;20605;-59
2023/06/03 03:14:09;;;;;;;6.70;3.50;;;13.40;99.90;;;;;;5071859;28;20306;-58
2023/06/03 03:16:36;;;;;;;6.80;3.10;;;13.40;99.90;;;;;;5071932;28;20205;-58
2023/06/03 03:19:02;;;;;;;11.30;3.30;;;13.30;99.90;;;;;;5072052;28;20719;-59
2023/06/03 03:21:29;;;;;;;10.87;3.60;;;13.30;99.90;;;;;;5071940;28;20604;-59
2023/06/03 03:23:57;;;;;;;6.33;3.90;;;13.30;99.90;;;;;;5071646;28;20256;-59
2023/06/03 03:26:26;;;;;;;6.60;3.70;;;13.20;99.90;;;;;;5071443;28;20674;-60
2023/06/03 03:28:53;;;;;;;8.43;3.77;;;13.20;99.90;;;;;;5071593;28;20576;-58
2023/06/03 03:31:21;;;;;;;6.60;3.10;;;13.20;99.90;;;;;;5071803;28;20291;-58
2023/06/03 03:33:49;;;;;;;5.83;3.10;;;13.20;99.90;;;;;;5071721;28;20315;-58
2023/06/03 03:36:20;;;;;;;9.10;3.40;;;13.20;99.90;;;;;;5071457;28;20204;-57
2023/06/03 03:38:46;;;;;;;8.87;3.27;;;13.20;99.90;;;;;;5071639;28;20213;-58
2023/06/03 03:41:14;;;;;;;6.97;3.20;;;13.20;99.90;;;;;;5071257;28;20624;-57
2023/06/03 03:43:42;;;;;;;6.07;3.80;;;13.20;99.90;;;;;;5071814;28;20228;-59
2023/06/03 03:46:10;;;;;;;8.93;3.70;;;13.20;99.90;;;;;;5071556;28;20201;-59
2023/06/03 03:48:36;;;;;;;8.33;3.10;;;13.30;99.90;;;;;;5071622;28;20283;-59
2023/06/03 03:51:03;;;;;;;8.00;3.03;;;13.30;99.90;;;;;;5071637;28;20651;-59
2023/06/03 03:53:32;;;;;;;8.93;3.63;;;13.40;99.90;;;;;;5071104;28;20228;-58
2023/06/03 03:55:59;;;;;;;12.07;5.70;;;13.40;99.90;;;;;;5071426;28;20201;-58
2023/06/03 03:58:28;;;;;;;7.93;3.90;;;13.40;99.90;;;;;;5071418;28;20240;-58
2023/06/03 04:00:57;;;;;;;7.60;3.33;;;13.50;99.90;;;;;;5071477;28;20205;-59
2023/06/03 04:03:25;;;;;;;6.10;3.23;;;13.60;99.90;;;;;;5071436;28;20225;-58
2023/06/03 04:05:52;;;;;;;5.63;3.33;;;13.60;99.90;;;;;;5070977;28;20214;-58
2023/06/03 04:08:39;;;;;;;9.90;3.40;;;13.70;99.90;;;;;;5071093;28;20233;-59
2023/06/03 04:11:07;;;;;;;6.00;3.60;;;13.70;99.90;;;;;;5071402;28;20262;-59
2023/06/03 04:13:38;;;;;;;10.57;4.70;;;13.80;99.90;;;;;;5070863;28;20233;-59
2023/06/03 04:16:11;;;;;;;10.97;3.40;;;13.80;99.90;;;;;;5070797;28;20205;-59
2023/06/03 04:18:42;;;;;;;9.60;3.20;;;13.90;99.90;;;;;;5070462;28;20201;-59
2023/06/03 04:21:15;;;;;;;7.00;3.43;;;14.00;99.90;;;;;;5071163;28;20205;-59
2023/06/03 04:23:42;;;;;;;8.83;3.70;;;14.00;99.90;;;;;;5071261;28;20252;-59
2023/06/03 04:26:09;;;;;;;8.10;3.33;;;14.10;99.90;;;;;;5070788;28;20204;-58
2023/06/03 04:28:38;;;;;;;8.53;3.10;;;14.20;99.90;;;;;;5071108;28;20291;-58
2023/06/03 04:31:05;;;;;;;10.73;3.63;;;14.30;99.90;;;;;;5071110;28;20223;-58
2023/06/03 04:33:32;;;;;;;8.53;4.33;;;14.40;99.90;;;;;;5071188;28;20314;-59
2023/06/03 04:35:59;;;;;;;7.87;3.73;;;14.50;99.90;;;;;;5070626;28;20670;-58
2023/06/03 04:38:26;;;;;;;9.53;3.70;;;14.60;99.90;;;;;;5071131;28;20204;-59
2023/06/03 04:40:53;;;;;;;9.43;3.57;;;14.70;99.90;;;;;;5071219;28;20205;-58
2023/06/03 04:43:20;;;;;;;8.37;3.97;;;14.80;99.90;;;;;;5071104;28;20217;-58
2023/06/03 04:45:49;;;;;;;8.73;4.03;;;14.90;99.90;;;;;;5071262;28;20216;-58
2023/06/03 04:48:16;;;;;;;9.43;3.93;;;15.00;99.90;;;;;;5071091;28;20224;-58
2023/06/03 04:50:44;;;;;;;7.23;3.97;;;15.00;99.90;;;;;;5071120;28;20209;-57
2023/06/03 04:53:12;;;;;;;9.00;3.97;;;15.20;99.90;;;;;;5071085;28;20320;-58
2023/06/03 04:55:42;;;;;;;6.57;3.53;;;15.40;99.90;;;;;;5070672;28;20205;-58
2023/06/03 04:58:09;;;;;;;8.10;3.58;;;15.70;99.90;;;;;;5070695;28;20671;-58
2023/06/03 05:00:36;;;;;;;11.32;3.53;;;16.50;99.90;;;;;;5070646;28;20216;-59
2023/06/03 05:03:08;;;;;;;7.43;3.20;;;17.60;99.00;;;;;;5070763;28;20451;-58
2023/06/03 05:05:36;;;;;;;8.38;3.25;;;18.70;95.60;;;;;;5070765;28;20232;-58
2023/06/03 05:08:03;;;;;;;7.10;3.15;;;19.30;94.30;;;;;;5070563;28;20292;-58
2023/06/03 05:10:29;;;;;;;7.43;3.45;;;20.10;92.70;;;;;;5070786;28;20216;-59
2023/06/03 05:12:57;;;;;;;10.00;3.10;;;21.40;91.50;;;;;;5070415;28;20231;-58
2023/06/03 05:15:23;;;;;;;6.97;3.25;;;22.80;87.90;;;;;;5070738;28;20205;-60
2023/06/03 05:17:50;;;;;;;9.35;3.13;;;24.00;82.30;;;;;;5070589;28;20209;-58
2023/06/03 05:20:18;;;;;;;8.65;2.95;;;25.10;77.60;;;;;;5070680;28;20577;-59
2023/06/03 05:22:45;;;;;;;7.00;2.72;;;26.00;73.30;;;;;;5070915;28;20630;-59
2023/06/03 05:25:12;;;;;;;7.78;3.08;;;26.70;69.90;;;;;;5070370;28;20229;-58
2023/06/03 05:27:38;;;;;;;8.55;3.20;;;27.50;68.40;;;;;;5070656;28;20209;-58
2023/06/03 05:30:06;;;;;;;8.70;3.25;;;27.60;65.50;;;;;;5071674;28;20329;-60
2023/06/03 05:32:33;;;;;;;9.95;2.80;;;27.30;65.20;;;;;;5074314;28;20208;-58
2023/06/03 05:35:00;;;;;;;7.13;3.03;;;27.00;66.00;;;;;;5074441;28;20240;-58
2023/06/03 05:37:28;;;;;;;10.20;4.53;;;27.30;66.10;;;;;;5073836;28;20200;-58
2023/06/03 05:39:54;;;;;;;13.50;6.57;;;28.30;63.60;;;;;;5074376;28;20205;-58
2023/06/03 05:42:21;;;;;;;11.93;3.20;;;29.50;61.20;;;;;;5073994;28;20209;-58
2023/06/03 05:44:48;;;;;;;6.70;3.25;;;30.70;57.70;;;;;;5074258;28;20698;-60
2023/06/03 05:47:14;;;;;;;6.55;3.00;;;31.70;56.20;;;;;;5073563;28;20212;-58
2023/06/03 05:49:41;;;;;;;7.20;2.78;;;32.50;53.90;;;;;;5073970;28;20274;-57
2023/06/03 05:52:08;;;;;;;7.90;2.75;;;33.20;52.30;;;;;;5074162;28;20209;-58
2023/06/03 05:54:36;;;;;;;7.18;3.80;;;33.80;50.80;;;;;;5073747;28;20237;-59
2023/06/03 05:57:03;;;;;;;7.43;3.13;;;34.00;50.60;;;;;;5073708;28;20209;-58
2023/06/03 05:59:30;;;;;;;7.30;3.42;;;34.40;49.50;;;;;;5073797;28;20211;-58
2023/06/03 06:01:57;;;;;;;8.80;3.97;;;34.40;49.10;;;;;;5073793;28;20205;-57
2023/06/03 06:04:23;;;;;;;8.30;3.03;;;34.40;48.90;;;;;;5073537;28;20231;-58
2023/06/03 06:06:50;;;;;;;4.90;2.60;;;34.40;47.80;;;;;;5073503;28;20208;-57
2023/06/03 06:09:17;;;;;;;7.20;3.40;;;34.30;48.20;;;;;;5073911;28;20209;-56
2023/06/03 06:11:46;;;;;;;6.47;2.50;;;34.40;47.60;;;;;;5074088;28;20209;-57
2023/06/03 06:14:13;;;;;;;7.53;2.72;;;34.40;47.60;;;;;;5073917;28;20286;-57
2023/06/03 06:16:40;;;;;;;7.47;2.70;;;34.90;47.10;;;;;;5073501;28;20562;-57
2023/06/03 06:19:06;;;;;;;5.03;2.58;;;35.20;46.40;;;;;;5073221;28;20262;-58
2023/06/03 06:21:33;;;;;;;6.65;2.72;;;35.40;46.10;;;;;;5073297;28;20205;-58
2023/06/03 06:24:00;;;;;;;6.03;2.80;;;35.60;45.70;;;;;;5073246;28;20644;-58
2023/06/03 06:26:27;;;;;;;7.85;3.03;;;35.70;45.40;;;;;;5073413;28;20204;-58
2023/06/03 06:28:55;;;;;;;8.35;3.03;;;35.70;45.30;;;;;;5073436;28;20216;-57
2023/06/03 06:31:22;;;;;;;6.15;2.42;;;35.70;44.80;;;;;;5073206;28;20204;-58
2023/06/03 06:33:49;;;;;;;11.40;3.35;;;35.70;44.90;;;;;;5072907;28;20225;-58
2023/06/03 06:36:30;;;;;;;7.88;3.00;;;35.80;44.30;;;;;;5072773;28;20205;-58
2023/06/03 06:38:57;;;;;;;7.47;2.55;;;35.80;44.70;;;;;;5073002;28;20200;-58
2023/06/03 06:41:26;;;;;;;4.63;2.70;;;35.60;44.80;;;;;;5072256;28;20222;-58
2023/06/03 06:43:55;;;;;;;5.65;3.03;;;35.50;45.20;;;;;;5072901;28;20233;-58
2023/06/03 06:46:24;;;;;;;10.02;3.10;;;35.70;45.40;;;;;;5072165;28;20678;-57
2023/06/03 06:48:51;;;;;;;4.72;2.63;;;36.20;44.30;;;;;;5072752;28;20242;-58
2023/06/03 06:51:19;;;;;;;6.82;2.92;;;36.50;43.70;;;;;;5072666;28;20231;-59
2023/06/03 06:53:48;;;;;;;7.07;2.47;;;36.60;43.20;;;;;;5072557;28;20225;-58
2023/06/03 06:56:18;;;;;;;12.60;2.92;;;36.60;42.80;;;;;;5072164;28;20246;-59
2023/06/03 06:58:46;;;;;;;6.63;2.80;;;36.40;43.10;;;;;;5072505;28;20302;-57
2023/06/03 07:01:14;;;;;;;6.38;2.70;;;36.30;43.20;;;;;;5072387;28;20225;-57
2023/06/03 07:03:40;;;;;;;7.85;2.88;;;36.10;43.40;;;;;;5072589;28;20225;-58
2023/06/03 07:06:08;;;;;;;6.88;3.00;;;36.30;43.00;;;;;;5072269;28;20219;-58
2023/06/03 07:08:35;;;;;;;4.72;2.70;;;36.20;43.10;;;;;;5072268;28;20689;-58
2023/06/03 07:11:03;;;;;;;9.85;2.80;;;36.20;43.30;;;;;;5072226;28;20197;-59
2023/06/03 07:13:30;;;;;;;7.35;2.70;;;36.20;43.00;;;;;;5072212;28;20233;-56
2023/06/03 07:15:56;;;;;;;6.88;2.80;;;36.20;43.00;;;;;;5072209;28;20208;-57
2023/06/03 07:18:25;;;;;;;4.65;2.53;;;36.30;43.00;;;;;;5072589;28;20213;-56
2023/06/03 07:20:52;;;;;;;9.30;2.80;;;36.60;42.80;;;;;;5072291;28;20212;-57
2023/06/03 07:23:21;;;;;;;9.15;3.75;;;36.70;42.40;;;;;;5072097;28;20232;-56
2023/06/03 07:25:49;;;;;;;5.28;2.92;;;36.10;42.90;;;;;;5072080;28;20213;-55
2023/06/03 07:28:17;;;;;;;7.78;2.97;;;35.70;43.60;;;;;;5071974;28;20209;-56
2023/06/03 07:30:47;;;;;;;6.90;3.05;;;35.90;43.30;;;;;;5072174;28;20205;-56
2023/06/03 07:33:25;;;;;;;5.40;3.03;;;35.90;43.30;;;;;;5071736;28;20606;-55
2023/06/03 07:35:53;;;;;;;7.90;2.95;;;36.10;43.70;;;;;;5071629;28;20239;-56
2023/06/03 07:38:55;;;;;;;6.88;2.72;;;36.40;43.10;;;;;;5071849;28;20237;-56
2023/06/03 07:41:36;;;;;;;6.75;3.08;;;36.40;43.10;;;;;;5069248;28;20415;-54
2023/06/03 07:44:05;;;;;;;6.88;2.90;;;36.30;43.00;;;;;;5072238;28;20311;-65
2023/06/03 07:46:38;;;;;;;7.10;3.30;;;35.90;43.40;;;;;;5071559;28;20783;-67
2023/06/03 07:49:08;;;;;;;6.43;2.97;;;35.60;43.90;;;;;;5071705;28;20290;-59
2023/06/03 07:51:34;;;;;;;4.32;2.60;;;35.40;43.90;;;;;;5071880;28;20220;-59
2023/06/03 07:54:04;;;;;;;8.93;3.20;;;35.70;43.70;;;;;;5070638;28;20734;-57
2023/06/03 07:56:31;;;;;;;9.35;3.28;;;36.00;43.40;;;;;;5071261;28;20207;-58
2023/06/03 07:59:00;;;;;;;7.07;2.58;;;36.20;43.00;;;;;;5071663;28;20204;-60
2023/06/03 08:01:27;;;;;;;6.15;2.90;;;36.30;43.00;;;;;;5071059;28;20212;-59
2023/06/03 08:03:54;;;;;;;5.90;2.65;;;36.10;43.20;;;;;;5071246;28;20722;-59
2023/06/03 08:06:26;;;;;;;10.05;2.92;;;35.70;43.80;;;;;;5071393;28;20295;-60
2023/06/03 08:08:53;;;;;;;6.97;3.22;;;35.70;43.80;;;;;;5071623;28;20262;-60
2023/06/03 08:11:20;;;;;;;8.27;3.25;;;35.90;43.70;;;;;;5071489;28;20213;-60
2023/06/03 08:13:47;;;;;;;9.73;2.97;;;36.20;43.00;;;;;;5071038;28;20237;-60
2023/06/03 08:16:17;;;;;;;8.57;3.30;;;36.30;43.10;;;;;;5070957;28;20227;-60
2023/06/03 08:18:47;;;;;;;7.80;3.00;;;36.00;43.50;;;;;;5071356;28;20234;-59
2023/06/03 08:21:14;;;;;;;8.52;3.28;;;36.20;43.30;;;;;;5064203;28;20209;-61
2023/06/03 08:23:43;;;;;;;5.05;2.78;;;36.10;43.30;;;;;;5050623;28;20312;-62
2023/06/03 08:26:11;;;;;;;7.57;3.10;;;36.00;43.80;;;;;;5050347;28;20206;-64
2023/06/03 08:28:39;;;;;;;10.27;3.03;;;36.00;44.00;;;;;;5051083;28;20691;-63
2023/06/03 08:31:05;;;;;;;4.57;2.70;;;36.20;43.40;;;;;;5051092;28;20255;-61
2023/06/03 08:33:32;;;;;;;4.72;2.78;;;36.40;43.50;;;;;;5050979;28;20229;-58
2023/06/03 08:35:59;;;;;;;5.45;2.75;;;36.20;43.30;;;;;;5050602;28;20226;-62
2023/06/03 08:38:26;;;;;;;9.68;3.20;;;36.50;43.50;;;;;;5050813;28;20237;-64
2023/06/03 08:40:55;;;;;;;8.48;3.63;;;36.60;43.20;;;;;;5050598;28;20590;-65
2023/06/03 08:43:22;;;;;;;4.70;3.00;;;36.40;43.70;;;;;;5050662;28;20229;-63
2023/06/03 08:45:57;;;;;;;6.07;3.33;;;36.10;44.00;;;;;;5050456;28;20663;-63
2023/06/03 08:48:33;;;;;;;6.38;3.17;;;35.50;44.90;;;;;;5051271;28;20289;-66
2023/06/03 08:51:05;;;;;;;5.65;2.90;;;34.10;46.40;;;;;;5050668;28;20228;-63
2023/06/03 08:53:38;;;;;;;8.65;3.35;;;32.70;48.30;;;;;;5050914;28;20257;-62
2023/06/03 08:56:07;;;;;;;7.82;3.65;;;31.40;50.20;;;;;;5050803;28;20230;-63
2023/06/03 08:58:43;;;;;;;6.82;3.33;;;30.10;52.00;;;;;;5050998;28;20205;-63
2023/06/03 09:01:11;;;;;;;5.95;3.40;;;28.90;53.70;;;;;;5050951;28;20304;-63
2023/06/03 09:03:40;;;;;;;7.43;3.88;;;28.00;55.80;;;;;;5050727;28;20225;-63
2023/06/03 09:06:07;;;;;;;10.95;6.90;;;27.20;57.50;;;;;;5052575;28;20292;-63
2023/06/03 09:08:37;;;;;;;8.25;3.85;;;26.50;59.00;;;;;;5054692;28;20209;-64
2023/06/03 09:11:08;;;;;;;7.78;3.50;;;26.20;59.70;;;;;;5054725;28;20271;-63
2023/06/03 09:13:35;;;;;;;8.20;3.60;;;25.90;60.50;;;;;;5054403;28;20260;-61
2023/06/03 09:16:03;;;;;;;7.20;3.50;;;25.60;61.30;;;;;;5053878;28;20260;-62
2023/06/03 09:18:30;;;;;;;5.55;3.30;;;25.30;62.40;;;;;;5054351;28;20212;-63
2023/06/03 09:20:57;;;;;;;9.85;4.18;;;25.10;63.60;;;;;;5054501;28;20232;-63
2023/06/03 09:23:24;;;;;;;5.30;3.17;;;25.00;64.00;;;;;;5054086;28;20225;-64
2023/06/03 09:25:51;;;;;;;6.93;3.80;;;24.90;65.20;;;;;;5054209;28;20203;-63
2023/06/03 09:28:19;;;;;;;4.88;3.80;;;24.80;65.40;;;;;;5053885;28;20618;-62
2023/06/03 09:30:46;;;;;;;4.45;3.47;;;24.90;65.00;;;;;;5053983;28;20209;-63
2023/06/03 09:33:13;;;;;;;6.43;3.50;;;24.80;65.90;;;;;;5054221;28;20236;-64
2023/06/03 09:35:40;;;;;;;4.85;3.45;;;24.60;66.30;;;;;;5054260;28;20233;-64
2023/06/03 09:38:06;;;;;;;8.73;3.90;;;24.40;66.50;;;;;;5054205;28;20210;-64
2023/06/03 09:40:35;;;;;;;6.32;3.72;;;24.30;67.20;;;;;;5053675;28;20725;-62
2023/06/03 09:43:09;;;;;;;8.65;4.13;;;24.20;67.80;;;;;;5053793;28;20210;-62
2023/06/03 09:45:37;;;;;;;6.68;3.58;;;24.20;67.40;;;;;;5054049;28;20205;-62
2023/06/03 09:48:04;;;;;;;5.65;4.03;;;24.20;68.00;;;;;;5053543;28;20678;-63
2023/06/03 09:50:32;;;;;;;6.80;3.95;;;24.30;67.90;;;;;;5053921;28;20577;-63
2023/06/03 09:52:59;;;;;;;5.80;3.50;;;24.40;68.00;;;;;;5053673;28;20215;-64
2023/06/03 09:55:32;;;;;;;6.32;3.85;;;24.50;68.10;;;;;;5054048;28;20225;-64
2023/06/03 09:58:06;;;;;;;7.90;3.47;;;24.80;67.10;;;;;;5053590;28;20296;-63
2023/06/03 10:00:46;;;;;;;7.10;3.75;;;24.80;66.80;;;;;;5053942;28;20208;-63
2023/06/03 10:03:14;;;;;;;6.18;3.63;;;24.80;67.50;;;;;;5053434;28;20710;-63
2023/06/03 10:05:41;;;;;;;9.40;3.90;;;24.90;67.80;;;;;;5053307;28;20202;-63
2023/06/03 10:08:08;;;;;;;7.35;3.67;;;25.10;66.70;;;;;;5053802;28;20240;-63
2023/06/03 10:10:35;;;;;;;6.10;3.72;;;25.10;66.30;;;;;;5053378;28;20214;-64
2023/06/03 10:13:21;;;;;;;7.38;3.63;;;24.90;66.70;;;;;;5053598;28;20201;-63
2023/06/03 10:15:49;;;;;;;5.03;3.50;;;24.90;67.10;;;;;;5053193;28;20251;-65
2023/06/03 10:18:17;;;;;;;5.45;3.72;;;24.90;66.90;;;;;;5052842;28;20201;-64
2023/06/03 10:20:44;;;;;;;5.13;3.10;;;24.90;66.80;;;;;;5053465;28;20206;-64
2023/06/03 10:23:12;;;;;;;10.55;3.80;;;25.00;65.90;;;;;;5053136;28;20580;-65
2023/06/03 10:25:42;;;;;;;8.23;3.70;;;25.20;65.80;;;;;;5053200;28;20208;-64
2023/06/03 10:28:11;;;;;;;8.65;4.00;;;25.40;66.10;;;;;;5053259;28;20587;-62
2023/06/03 10:30:39;;;;;;;8.68;3.75;;;25.40;65.60;;;;;;5053341;28;20691;-64
2023/06/03 10:33:08;;;;;;;4.88;3.67;;;25.40;67.20;;;;;;5053161;28;20650;-63
2023/06/03 10:35:38;;;;;;;7.35;3.67;;;25.40;65.90;;;;;;5053300;28;20233;-62
2023/06/03 10:38:06;;;;;;;8.90;3.47;;;25.60;65.10;;;;;;5052933;28;20682;-64
2023/06/03 10:40:33;;;;;;;7.07;4.05;;;25.80;64.60;;;;;;5053003;28;20209;-65
2023/06/03 10:43:00;;;;;;;10.00;3.97;;;25.90;63.30;;;;;;5052676;28;20228;-66
2023/06/03 10:45:28;;;;;;;6.68;3.55;;;26.00;64.00;;;;;;5050568;28;20201;-63
2023/06/03 10:48:01;;;;;;;5.22;3.60;;;25.90;63.90;;;;;;5052269;28;20214;-62
2023/06/03 10:50:41;;;;;;;7.97;3.95;;;25.70;64.50;;;;;;5052342;28;20206;-62
2023/06/03 10:53:21;;;;;;;6.68;3.63;;;25.70;64.40;;;;;;5052889;28;20603;-63
2023/06/03 10:56:03;;;;;;;8.13;3.50;;;25.70;64.30;;;;;;5052097;28;20225;-63
2023/06/03 10:58:30;;;;;;;9.88;3.42;;;25.90;63.40;;;;;;5052375;28;20209;-64
2023/06/03 11:00:59;;;;;;;9.85;3.75;;;26.30;63.60;;;;;;5052198;28;20225;-63
2023/06/03 11:03:26;;;;;;;7.78;3.95;;;26.70;63.40;;;;;;5050475;28;20225;-63
2023/06/03 11:05:55;;;;;;;8.70;3.88;;;27.00;62.20;;;;;;5043427;28;20202;-63
2023/06/03 11:09:00;;;;;;;8.68;3.78;;;27.40;62.30;;;;;;5052485;28;20224;-63
2023/06/03 11:12:03;;;;;;;7.03;3.63;;;27.50;60.00;;;;;;5052246;28;20651;-62
2023/06/03 11:14:54;;;;;;;5.18;3.42;;;27.70;60.00;;;;;;5009355;28;20600;-62
2023/06/03 11:17:22;;;;;;;6.75;3.72;;;27.80;60.90;;;;;;5047678;28;20205;-64
2023/06/03 11:19:51;;;;;;;7.20;3.85;;;28.20;59.70;;;;;;5052424;28;20213;-66
2023/06/03 11:22:42;;;;;;;9.48;3.75;;;28.20;59.60;;;;;;5052414;28;20209;-67
2023/06/03 11:25:25;;;;;;;6.50;3.75;;;28.10;59.80;;;;;;5053248;28;20221;-66
2023/06/03 11:27:51;;;;;;;6.57;4.00;;;28.40;59.30;;;;;;5051988;28;20209;-65
2023/06/03 11:30:18;;;;;;;6.35;3.80;;;28.70;58.30;;;;;;5052449;28;20579;-64
2023/06/03 11:32:45;;;;;;;6.80;3.83;;;28.70;58.00;;;;;;5052444;28;20675;-65
2023/06/03 11:35:28;;;;;;;8.05;3.97;;;28.50;58.10;;;;;;5051789;28;20236;-63
2023/06/03 11:37:56;;;;;;;6.30;3.60;;;28.50;58.10;;;;;;5051963;28;20737;-65
2023/06/03 11:40:24;;;;;;;6.15;4.03;;;28.80;57.10;;;;;;5051723;28;20209;-65
2023/06/03 11:43:07;;;;;;;6.20;3.63;;;28.70;57.00;;;;;;5052262;28;20209;-62
2023/06/03 11:45:34;;;;;;;7.90;3.88;;;29.00;57.30;;;;;;5051588;28;20236;-62
2023/06/03 11:48:04;;;;;;;7.35;3.83;;;29.40;56.70;;;;;;5051334;28;20288;-67
2023/06/03 11:50:32;;;;;;;5.68;3.10;;;29.50;56.60;;;;;;5051398;28;20759;-66
2023/06/03 11:53:01;;;;;;;6.97;4.07;;;29.70;56.30;;;;;;5051608;28;20212;-65
2023/06/03 11:55:29;;;;;;;6.55;3.80;;;29.80;56.20;;;;;;5051100;28;20236;-64
2023/06/03 11:58:00;;;;;;;8.45;3.80;;;29.70;56.70;;;;;;5049624;28;20214;-65
2023/06/03 12:00:27;;;;;;;6.43;3.70;;;29.50;56.60;;;;;;5050817;28;20209;-65
2023/06/03 12:02:54;;;;;;;5.07;3.75;;;29.40;56.50;;;;;;5051079;28;20209;-68
2023/06/03 12:05:21;;;;;;;6.28;3.85;;;29.40;56.50;;;;;;5050971;28;20761;-64
2023/06/03 12:07:54;;;;;;;7.45;3.50;;;29.60;56.40;;;;;;5051133;28;20599;-65
2023/06/03 12:10:22;;;;;;;7.03;3.83;;;29.40;55.70;;;;;;5051440;28;20240;-63
2023/06/03 12:12:53;;;;;;;12.60;4.80;;;29.10;56.30;;;;;;5051019;28;20291;-64
2023/06/03 12:15:20;;;;;;;6.95;3.88;;;28.70;57.40;;;;;;5049239;28;20320;-64
2023/06/03 12:17:47;;;;;;;7.03;3.83;;;28.50;57.30;;;;;;5050128;28;20543;-65
2023/06/03 12:20:23;;;;;;;5.30;4.15;;;28.00;58.70;;;;;;5051152;28;20205;-65
2023/06/03 12:22:50;;;;;;;6.55;3.88;;;27.70;58.80;;;;;;5051117;28;20239;-63
2023/06/03 12:25:22;;;;;;;11.07;3.80;;;27.40;58.70;;;;;;5049106;28;20667;-68
2023/06/03 12:27:48;;;;;;;4.85;3.60;;;27.50;59.60;;;;;;5050216;28;20226;-65
2023/06/03 12:30:28;;;;;;;6.40;3.47;;;27.60;58.70;;;;;;5049181;28;20211;-64
2023/06/03 12:32:57;;;;;;;6.18;3.95;;;27.60;58.80;;;;;;5051187;28;20278;-62
2023/06/03 12:35:25;;;;;;;5.55;3.67;;;27.60;59.30;;;;;;5051177;28;20344;-62
2023/06/03 12:38:03;;;;;;;9.07;3.70;;;27.70;58.80;;;;;;5050721;28;20209;-62
2023/06/03 12:40:32;;;;;;;7.93;3.88;;;27.80;58.20;;;;;;5052253;28;20251;-64
2023/06/03 12:43:00;;;;;;;8.45;3.58;;;27.90;58.20;;;;;;5055022;28;20292;-64
2023/06/03 12:45:27;;;;;;;6.47;3.50;;;28.00;57.90;;;;;;5054998;28;20350;-62
2023/06/03 12:47:55;;;;;;;5.93;3.85;;;28.20;57.40;;;;;;5054720;28;20209;-65
2023/06/03 12:50:30;;;;;;;4.32;3.47;;;28.40;57.30;;;;;;5054970;28;20683;-64
2023/06/03 12:53:12;;;;;;;9.10;4.05;;;28.50;58.10;;;;;;5054587;28;20201;-64
2023/06/03 12:55:41;;;;;;;6.97;3.30;;;28.50;57.30;;;;;;5054863;28;20225;-65